-16.7C
пасмурно
пасмурно
Дата и времяТемператураДавление, мм рт.ст.Влажность, %Осадки
МинимумМаксимум
05.03.2024 17:00-18.18C-18.18C76095небольшой снег
05.03.2024 20:00-21.37C-19.24C76194пасмурно
05.03.2024 23:00-26.84C-23.95C76196пасмурно
06.03.2024 02:00-28.7C-28.7C76297пасмурно
06.03.2024 05:00-29.41C-29.41C76296пасмурно
06.03.2024 08:00-29.69C-29.69C76296облачно с прояснениями
06.03.2024 11:00-22.28C-22.28C76388облачно с прояснениями
06.03.2024 14:00-18.33C-18.33C76287переменная облачность
06.03.2024 17:00-20.55C-20.55C76294переменная облачность
06.03.2024 20:00-22.18C-22.18C76290пасмурно
06.03.2024 23:00-21.04C-21.04C75990пасмурно
07.03.2024 02:00-18.63C-18.63C75890пасмурно
07.03.2024 05:00-16.29C-16.29C75697небольшой снег
07.03.2024 08:00-14.63C-14.63C75396небольшой снег
07.03.2024 11:00-11.68C-11.68C75094небольшой снег
07.03.2024 14:00-9.93C-9.93C74995небольшой снег
07.03.2024 17:00-9.77C-9.77C74896снег
07.03.2024 20:00-10.5C-10.5C74996небольшой снег
07.03.2024 23:00-12.46C-12.46C75094небольшой снег
08.03.2024 02:00-15.36C-15.36C75192небольшой снег
08.03.2024 05:00-16.69C-16.69C75391пасмурно
08.03.2024 08:00-18.94C-18.94C75490пасмурно
08.03.2024 11:00-19.53C-19.53C75692пасмурно
08.03.2024 14:00-18.84C-18.84C75791переменная облачность
08.03.2024 17:00-20.22C-20.22C75892переменная облачность
08.03.2024 20:00-25.48C-25.48C75997переменная облачность
08.03.2024 23:00-27.31C-27.31C75998переменная облачность
09.03.2024 02:00-29.51C-29.51C760100переменная облачность
09.03.2024 05:00-30.42C-30.42C760100облачно с прояснениями
09.03.2024 08:00-30.09C-30.09C761100пасмурно
09.03.2024 11:00-23.61C-23.61C76197пасмурно
09.03.2024 14:00-20.68C-20.68C76194пасмурно
09.03.2024 17:00-23.68C-23.68C761100пасмурно
09.03.2024 20:00-27.23C-27.23C761100пасмурно
09.03.2024 23:00-29.14C-29.14C761100пасмурно
10.03.2024 02:00-30.8C-30.8C761100пасмурно
10.03.2024 05:00-31.53C-31.53C761100пасмурно
10.03.2024 08:00-31.58C-31.58C761100пасмурно
10.03.2024 11:00-25.58C-25.58C76098пасмурно
10.03.2024 14:00-22.92C-22.92C76093облачно с прояснениями
Дата и время наблюдения: 05.03.2024 15:30:02